createdAt,value
2023-11-12T00:08:51.348Z,6.86
2023-11-12T00:18:55.091Z,7.01
2023-11-12T00:28:58.487Z,7.05
2023-11-12T00:39:01.905Z,6.83
2023-11-12T00:49:06.878Z,6.75
2023-11-12T00:59:10.331Z,6.70
2023-11-12T01:09:13.855Z,6.74
2023-11-12T01:19:17.619Z,6.86
2023-11-12T01:29:21.476Z,6.94
2023-11-12T01:39:25.128Z,6.86
2023-11-12T01:49:29.067Z,6.78
2023-11-12T01:59:35.686Z,6.74
2023-11-12T02:09:39.271Z,6.70
2023-11-12T02:19:42.610Z,6.66
2023-11-12T02:29:50.051Z,6.58
2023-11-12T02:39:53.771Z,6.58
2023-11-12T02:50:03.384Z,6.62
2023-11-12T03:00:10.200Z,6.62
2023-11-12T03:10:13.636Z,6.50
2023-11-12T03:20:17.341Z,6.48
2023-11-12T03:30:20.765Z,6.46
2023-11-12T03:40:25.299Z,6.40
2023-11-12T03:50:28.677Z,6.37
2023-11-12T04:00:33.384Z,6.37
2023-11-12T04:10:36.971Z,6.34
2023-11-12T04:20:40.308Z,6.37
2023-11-12T04:30:44.006Z,6.47
2023-11-12T04:40:50.253Z,6.56
2023-11-12T04:50:54.332Z,6.45
2023-11-12T05:00:57.788Z,6.29
2023-11-12T05:11:01.333Z,6.25
2023-11-12T05:21:06.488Z,6.30
2023-11-12T05:31:11.939Z,6.34
2023-11-12T05:41:15.967Z,6.26
2023-11-12T05:51:21.068Z,6.18
2023-11-12T06:01:24.719Z,6.16
2023-11-12T06:11:27.979Z,6.17
2023-11-12T06:21:31.357Z,5.98
2023-11-12T06:31:35.439Z,5.81
2023-11-12T06:41:38.821Z,5.74
2023-11-12T06:51:42.277Z,5.78
2023-11-12T07:01:47.154Z,5.87
2023-11-12T07:11:50.556Z,5.92
2023-11-12T07:21:53.795Z,5.98
2023-11-12T07:31:57.340Z,6.00
2023-11-12T07:42:00.684Z,6.14
2023-11-12T07:52:04.554Z,6.28
2023-11-12T08:02:07.931Z,6.22
2023-11-12T08:12:11.223Z,6.26
2023-11-12T08:22:14.978Z,6.28
2023-11-12T08:32:19.063Z,6.43
2023-11-12T08:42:22.415Z,6.46
2023-11-12T08:52:26.542Z,6.37
2023-11-12T09:02:29.944Z,6.33
2023-11-12T09:12:33.866Z,6.45
2023-11-12T09:22:37.082Z,6.62
2023-11-12T09:32:40.791Z,6.79
2023-11-12T09:42:53.177Z,6.92
2023-11-12T09:52:56.840Z,6.82
2023-11-12T10:03:01.510Z,6.74
2023-11-12T10:13:05.964Z,6.68
2023-11-12T10:23:32.932Z,6.80
2023-11-12T10:33:38.517Z,6.81
2023-11-12T10:43:57.958Z,6.75
2023-11-12T10:54:04.168Z,6.76
2023-11-12T11:04:10.423Z,6.76
2023-11-12T11:14:31.012Z,6.79
2023-11-12T11:24:45.172Z,6.90
2023-11-12T11:34:50.842Z,7.20
2023-11-12T11:45:00.964Z,7.54
2023-11-12T11:55:13.528Z,7.86
2023-11-12T12:05:32.590Z,8.12
2023-11-12T12:15:37.317Z,8.30
2023-11-12T12:25:53.347Z,8.33
2023-11-12T12:36:00.540Z,8.21
2023-11-12T12:46:06.345Z,8.02
2023-11-12T12:56:10.866Z,8.00
2023-11-12T13:06:16.149Z,7.85
2023-11-12T13:16:19.637Z,7.68
2023-11-12T13:26:23.752Z,7.54
2023-11-12T13:36:28.339Z,7.52
2023-11-12T13:46:33.263Z,7.58
2023-11-12T13:56:38.698Z,7.41
2023-11-12T14:06:42.211Z,7.33
2023-11-12T14:16:46.127Z,7.27
2023-11-12T14:26:49.853Z,7.18
2023-11-12T14:36:53.214Z,7.07
2023-11-12T14:46:56.716Z,6.96
2023-11-12T14:56:59.928Z,6.77
2023-11-12T15:07:03.830Z,6.70
2023-11-12T15:17:07.696Z,6.63
2023-11-12T15:27:11.139Z,6.54
2023-11-12T15:37:15.193Z,6.53
2023-11-12T15:47:21.030Z,6.38
2023-11-12T15:57:24.375Z,6.32
2023-11-12T16:07:27.783Z,6.10
2023-11-12T16:17:33.076Z,5.76
2023-11-12T16:27:36.822Z,5.46
2023-11-12T16:37:48.625Z,5.42
2023-11-12T16:47:52.843Z,5.29
2023-11-12T16:57:56.401Z,5.07
2023-11-12T17:08:00.535Z,4.83
2023-11-12T17:18:03.954Z,4.61
2023-11-12T17:28:07.485Z,4.40
2023-11-12T17:38:11.285Z,4.18
2023-11-12T17:48:16.806Z,3.77
2023-11-12T17:58:21.348Z,3.34
2023-11-12T18:08:25.643Z,3.10
2023-11-12T18:18:32.700Z,2.97
2023-11-12T18:28:38.929Z,2.82
2023-11-12T18:38:42.436Z,2.66
2023-11-12T18:48:45.688Z,2.46
2023-11-12T18:58:54.847Z,2.24
2023-11-12T19:09:00.116Z,2.09
2023-11-12T19:19:04.272Z,1.90
2023-11-12T19:29:07.660Z,1.51
2023-11-12T19:39:14.749Z,1.22
2023-11-12T19:49:18.225Z,1.00
2023-11-12T19:59:21.946Z,0.91
2023-11-12T20:09:25.822Z,0.75
2023-11-12T20:19:29.348Z,0.66
2023-11-12T20:29:34.670Z,0.59
2023-11-12T20:39:40.175Z,0.55
2023-11-12T20:49:44.408Z,0.52
2023-11-12T20:59:49.186Z,0.49
2023-11-12T21:09:54.173Z,0.35
2023-11-12T21:19:59.343Z,0.36
2023-11-12T21:30:03.219Z,0.36
2023-11-12T21:40:07.413Z,0.25
2023-11-12T21:50:17.216Z,0.35
2023-11-12T22:00:22.193Z,0.35
2023-11-12T22:10:25.577Z,0.26
2023-11-12T22:20:31.318Z,0.20
2023-11-12T22:30:34.723Z,0.21
2023-11-12T22:40:38.985Z,0.29
2023-11-12T22:50:42.255Z,0.55
2023-11-12T23:00:51.106Z,0.78
2023-11-12T23:10:59.209Z,0.99
2023-11-12T23:21:09.536Z,1.10
2023-11-12T23:31:13.669Z,1.11
2023-11-12T23:41:17.270Z,1.19
2023-11-12T23:51:21.229Z,1.36
